createdAt,value
2019-05-28T00:01:18.347Z,18.70
2019-05-28T00:04:19.874Z,17.87
2019-05-28T00:07:21.112Z,21.23
2019-05-28T00:10:22.726Z,21.65
2019-05-28T00:13:24.126Z,20.40
2019-05-28T00:16:25.349Z,22.62
2019-05-28T00:19:26.730Z,21.25
2019-05-28T00:22:28.316Z,19.20
2019-05-28T00:25:29.561Z,21.02
2019-05-28T00:28:30.794Z,26.73
2019-05-28T00:31:32.237Z,22.45
2019-05-28T00:34:33.458Z,21.50
2019-05-28T00:37:34.906Z,21.90
2019-05-28T00:40:36.144Z,24.77
2019-05-28T00:43:37.572Z,30.70
2019-05-28T00:46:38.824Z,22.17
2019-05-28T00:49:40.259Z,21.62
2019-05-28T00:52:41.589Z,23.67
2019-05-28T00:55:43.028Z,25.35
2019-05-28T00:58:44.499Z,23.32
2019-05-28T01:01:46.002Z,21.42
2019-05-28T01:04:47.328Z,24.12
2019-05-28T01:07:48.789Z,24.75
2019-05-28T01:10:51.073Z,22.20
2019-05-28T01:13:52.929Z,23.83
2019-05-28T01:16:54.193Z,24.30
2019-05-28T01:19:55.750Z,22.70
2019-05-28T01:22:56.989Z,23.73
2019-05-28T01:25:58.611Z,24.32
2019-05-28T01:28:59.856Z,25.90
2019-05-28T01:32:01.278Z,27.30
2019-05-28T01:35:04.425Z,26.40
2019-05-28T01:38:08.351Z,24.52
2019-05-28T01:41:09.198Z,30.25
2019-05-28T01:44:10.445Z,24.30
2019-05-28T01:47:11.906Z,25.55
2019-05-28T01:50:13.540Z,24.50
2019-05-28T01:53:14.956Z,26.50
2019-05-28T01:56:16.194Z,24.75
2019-05-28T01:59:17.453Z,26.48
2019-05-28T02:02:18.703Z,29.15
2019-05-28T02:05:19.929Z,28.62
2019-05-28T02:08:21.179Z,28.10
2019-05-28T02:11:22.438Z,28.00
2019-05-28T02:14:24.114Z,31.02
2019-05-28T02:17:25.365Z,36.70
2019-05-28T02:20:26.618Z,32.60
2019-05-28T02:23:27.853Z,29.82
2019-05-28T02:26:29.363Z,34.15
2019-05-28T02:29:30.906Z,32.40
2019-05-28T02:32:32.149Z,34.55
2019-05-28T02:35:33.399Z,35.25
2019-05-28T02:38:34.663Z,32.40
2019-05-28T02:41:36.036Z,40.12
2019-05-28T02:44:37.274Z,34.23
2019-05-28T02:47:38.528Z,34.10
2019-05-28T02:50:55.490Z,37.17
2019-05-28T02:53:56.776Z,34.80
2019-05-28T02:56:59.466Z,34.53
2019-05-28T03:00:00.690Z,33.25
2019-05-28T03:03:02.054Z,33.13
2019-05-28T03:06:04.381Z,32.70
2019-05-28T03:09:05.925Z,32.17
2019-05-28T03:12:09.321Z,32.98
2019-05-28T03:15:10.750Z,28.12
2019-05-28T03:18:11.985Z,28.73
2019-05-28T03:21:13.579Z,30.77
2019-05-28T03:24:14.774Z,29.40
2019-05-28T03:27:16.029Z,29.92
2019-05-28T03:30:17.274Z,30.95
2019-05-28T03:33:18.539Z,29.25
2019-05-28T03:36:19.805Z,29.40
2019-05-28T03:39:21.137Z,27.98
2019-05-28T03:42:22.575Z,32.00
2019-05-28T03:45:23.844Z,30.32
2019-05-28T03:48:25.438Z,29.52
2019-05-28T03:51:26.664Z,36.75
2019-05-28T03:54:27.934Z,29.95
2019-05-28T03:57:29.173Z,31.37
2019-05-28T04:00:31.173Z,30.92
2019-05-28T04:03:32.467Z,30.30
2019-05-28T04:06:33.893Z,26.77
2019-05-28T04:09:35.514Z,28.67
2019-05-28T04:12:37.998Z,28.25
2019-05-28T04:15:39.366Z,28.57
2019-05-28T04:18:40.799Z,28.27
2019-05-28T04:21:42.047Z,34.08
2019-05-28T04:24:43.533Z,29.63
2019-05-28T04:27:44.770Z,33.02
2019-05-28T04:34:07.007Z,24.23
2019-05-28T04:37:08.487Z,25.45
2019-05-28T04:40:09.723Z,24.15
2019-05-28T04:43:10.990Z,23.32
2019-05-28T04:46:12.531Z,21.87
2019-05-28T04:49:14.073Z,21.80
2019-05-28T04:52:15.329Z,20.75
2019-05-28T04:55:16.918Z,19.45
2019-05-28T04:58:18.434Z,18.57
2019-05-28T05:01:19.891Z,17.98
2019-05-28T05:04:21.187Z,17.55
2019-05-28T05:07:22.634Z,20.10
2019-05-28T05:10:23.870Z,16.23
2019-05-28T05:13:25.646Z,18.55
2019-05-28T05:16:27.952Z,14.98
2019-05-28T05:19:29.197Z,15.48
2019-05-28T05:22:30.454Z,13.48
2019-05-28T05:25:31.797Z,14.15
2019-05-28T05:28:33.025Z,12.78
2019-05-28T05:31:35.045Z,13.15
2019-05-28T05:34:36.670Z,13.48
2019-05-28T05:37:38.034Z,15.50
2019-05-28T05:40:39.370Z,11.55
2019-05-28T05:43:40.677Z,12.78
2019-05-28T05:46:42.209Z,12.50
2019-05-28T05:49:43.906Z,13.22
2019-05-28T05:52:45.189Z,12.68
2019-05-28T05:55:46.649Z,12.28
2019-05-28T05:58:48.275Z,14.58
2019-05-28T06:01:49.667Z,11.93
2019-05-28T06:04:50.937Z,16.73
2019-05-28T06:07:52.431Z,14.63
2019-05-28T06:10:53.622Z,12.50
2019-05-28T06:13:55.315Z,13.20
2019-05-28T06:16:56.601Z,13.38
2019-05-28T06:19:57.849Z,15.68
2019-05-28T06:22:59.269Z,12.88
2019-05-28T06:26:00.508Z,14.70
2019-05-28T06:29:01.769Z,13.18
2019-05-28T06:32:03.130Z,12.23
2019-05-28T06:35:04.979Z,11.85
2019-05-28T06:38:06.490Z,11.60
2019-05-28T06:41:07.741Z,12.30
2019-05-28T06:44:09.217Z,11.63
2019-05-28T06:47:10.441Z,12.58
2019-05-28T06:50:12.736Z,12.70
2019-05-28T06:53:15.246Z,11.57
2019-05-28T06:56:16.893Z,14.65
2019-05-28T06:59:18.142Z,12.25
2019-05-28T07:02:19.644Z,11.65
2019-05-28T07:05:20.909Z,12.85
2019-05-28T07:08:22.819Z,12.80
2019-05-28T07:11:24.167Z,12.60
2019-05-28T07:14:25.623Z,11.22
2019-05-28T07:17:26.882Z,11.93
2019-05-28T07:20:28.235Z,11.50
2019-05-28T07:23:29.472Z,12.98
2019-05-28T07:26:30.844Z,11.80
2019-05-28T07:29:32.074Z,11.95
2019-05-28T07:32:33.513Z,13.35
2019-05-28T07:35:45.253Z,13.28
2019-05-28T07:38:38.222Z,14.25
2019-05-28T07:41:39.732Z,13.65
2019-05-28T07:44:41.492Z,14.68
2019-05-28T07:47:42.881Z,12.78
2019-05-28T07:50:44.122Z,13.03
2019-05-28T07:53:45.703Z,13.78
2019-05-28T07:56:46.962Z,13.20
2019-05-28T07:59:48.402Z,13.15
2019-05-28T08:02:49.705Z,13.25
2019-05-28T08:05:51.182Z,14.38
2019-05-28T08:08:52.457Z,13.35
2019-05-28T08:11:56.757Z,13.75
2019-05-28T08:14:58.093Z,13.60
2019-05-28T08:17:59.963Z,15.18
2019-05-28T08:21:01.202Z,13.48
2019-05-28T08:24:02.679Z,13.80
2019-05-28T08:27:03.962Z,13.20
2019-05-28T08:30:06.185Z,14.43
2019-05-28T08:33:07.445Z,13.22
2019-05-28T08:36:08.775Z,12.90
2019-05-28T08:39:10.004Z,27.55
2019-05-28T08:42:11.453Z,34.98
2019-05-28T08:45:13.147Z,34.80
2019-05-28T08:48:15.792Z,13.98
2019-05-28T08:51:16.972Z,26.68
2019-05-28T08:54:18.565Z,30.85
2019-05-28T08:57:20.479Z,38.15
2019-05-28T09:00:37.769Z,27.75
2019-05-28T09:03:39.300Z,28.90
2019-05-28T09:06:40.616Z,17.45
2019-05-28T09:09:42.169Z,25.68
2019-05-28T09:12:44.107Z,17.45
2019-05-28T09:15:45.826Z,13.68
2019-05-28T09:18:47.079Z,25.40
2019-05-28T09:21:48.524Z,15.90
2019-05-28T09:24:49.770Z,14.68
2019-05-28T09:27:51.574Z,11.53
2019-05-28T09:30:52.793Z,31.23
2019-05-28T09:33:54.571Z,15.63
2019-05-28T09:36:55.841Z,18.48
2019-05-28T09:39:57.554Z,14.40
2019-05-28T09:42:58.816Z,22.55
2019-05-28T09:46:00.241Z,29.55
2019-05-28T09:49:01.479Z,13.00
2019-05-28T09:52:03.278Z,12.05
2019-05-28T09:55:05.155Z,21.60
2019-05-28T09:58:06.586Z,12.90
2019-05-28T10:01:07.943Z,15.80
2019-05-28T10:04:09.352Z,9.78
2019-05-28T10:07:10.605Z,14.20
2019-05-28T10:10:12.261Z,9.25
2019-05-28T10:13:13.511Z,8.20
2019-05-28T10:16:15.100Z,8.08
2019-05-28T10:19:16.515Z,9.23
2019-05-28T10:22:17.939Z,10.30
2019-05-28T10:25:19.177Z,9.58
2019-05-28T10:28:20.905Z,8.18
2019-05-28T10:31:22.152Z,8.25
2019-05-28T10:34:23.401Z,10.50
2019-05-28T10:37:24.638Z,9.05
2019-05-28T10:40:26.389Z,9.43
2019-05-28T10:43:29.534Z,7.15
2019-05-28T10:46:30.797Z,7.10
2019-05-28T10:49:32.238Z,6.80
2019-05-28T10:52:33.477Z,6.60
2019-05-28T10:55:34.898Z,7.53
2019-05-28T10:58:36.129Z,9.75
2019-05-28T11:01:37.774Z,6.53
2019-05-28T11:04:39.022Z,6.92
2019-05-28T11:07:42.533Z,6.78
2019-05-28T11:10:43.785Z,7.95
2019-05-28T11:13:52.978Z,7.97
2019-05-28T11:16:49.728Z,7.72
2019-05-28T11:19:51.351Z,7.45
2019-05-28T11:22:53.385Z,7.75
2019-05-28T11:25:54.630Z,7.45
2019-05-28T11:28:55.918Z,6.83
2019-05-28T11:31:57.272Z,12.07
2019-05-28T11:34:58.698Z,5.47
2019-05-28T11:37:59.956Z,7.90
2019-05-28T11:41:01.298Z,8.78
2019-05-28T11:44:03.366Z,9.20
2019-05-28T11:47:05.163Z,8.03
2019-05-28T11:50:09.230Z,6.42
2019-05-28T11:53:10.690Z,5.78
2019-05-28T11:56:12.111Z,7.10
2019-05-28T11:59:13.866Z,7.10
2019-05-28T12:02:15.105Z,8.23
2019-05-28T12:05:17.450Z,5.75
2019-05-28T12:08:18.693Z,9.95
2019-05-28T12:11:21.076Z,6.45
2019-05-28T12:14:22.335Z,10.40
2019-05-28T12:17:40.685Z,4.75
2019-05-28T12:20:28.373Z,6.53
2019-05-28T12:23:29.937Z,9.98
2019-05-28T12:26:31.347Z,11.78
2019-05-28T12:29:33.199Z,10.78
2019-05-28T12:32:34.439Z,8.98
2019-05-28T12:35:35.916Z,7.65
2019-05-28T12:38:37.141Z,9.23
2019-05-28T12:41:38.510Z,9.83
2019-05-28T12:44:42.607Z,8.88
2019-05-28T12:47:43.739Z,12.60
2019-05-28T12:50:45.135Z,8.55
2019-05-28T12:53:50.860Z,8.05
2019-05-28T12:56:49.802Z,6.90
2019-05-28T12:59:51.071Z,10.90
2019-05-28T13:02:52.418Z,9.50
2019-05-28T13:05:54.375Z,7.62
2019-05-28T13:08:55.654Z,13.20
2019-05-28T13:11:57.205Z,9.45
2019-05-28T13:14:58.991Z,8.80
2019-05-28T13:18:01.287Z,9.20
2019-05-28T13:21:02.802Z,7.12
2019-05-28T13:24:04.705Z,21.05
2019-05-28T13:27:18.277Z,26.37
2019-05-28T13:30:14.212Z,14.70
2019-05-28T13:33:16.134Z,9.23
2019-05-28T13:36:17.372Z,10.88
2019-05-28T13:39:18.665Z,12.73
2019-05-28T13:42:19.978Z,6.40
2019-05-28T13:45:21.497Z,7.12
2019-05-28T13:48:24.272Z,7.08
2019-05-28T13:51:27.113Z,16.45
2019-05-28T13:54:31.689Z,21.60
2019-05-28T13:57:33.244Z,13.43
2019-05-28T14:00:34.817Z,10.60
2019-05-28T14:03:36.038Z,8.85
2019-05-28T14:06:43.631Z,9.20
2019-05-28T14:09:40.759Z,8.23
2019-05-28T14:12:44.145Z,9.65
2019-05-28T14:15:45.917Z,9.05
2019-05-28T14:18:47.522Z,10.35
2019-05-28T14:21:48.967Z,15.78
2019-05-28T14:24:50.216Z,13.40
2019-05-28T14:27:52.030Z,11.15
2019-05-28T14:30:59.881Z,7.87
2019-05-28T14:33:56.777Z,7.97
2019-05-28T14:36:57.991Z,11.33
2019-05-28T14:40:00.243Z,10.25
2019-05-28T14:43:01.635Z,7.22
2019-05-28T14:46:03.835Z,13.00
2019-05-28T14:49:07.887Z,15.85
2019-05-28T14:52:08.899Z,7.80
2019-05-28T14:55:10.533Z,10.58
2019-05-28T14:58:13.823Z,10.10
2019-05-28T15:01:15.891Z,8.28
2019-05-28T15:04:17.737Z,5.78
2019-05-28T15:07:19.014Z,10.10
2019-05-28T15:10:31.468Z,11.00
2019-05-28T15:13:33.383Z,7.12
2019-05-28T15:16:36.378Z,6.90
2019-05-28T15:19:37.689Z,5.87
2019-05-28T15:22:39.466Z,5.17
2019-05-28T15:25:41.549Z,9.28
2019-05-28T15:28:44.447Z,6.17
2019-05-28T15:31:46.105Z,3.45
2019-05-28T15:34:48.077Z,6.53
2019-05-28T15:37:51.250Z,5.47
2019-05-28T15:40:53.502Z,10.32
2019-05-28T15:43:55.536Z,7.62
2019-05-28T15:46:57.114Z,6.37
2019-05-28T15:49:59.103Z,5.05
2019-05-28T15:53:09.831Z,7.40
2019-05-28T15:56:11.222Z,8.88
2019-05-28T15:59:15.379Z,3.55
2019-05-28T16:02:17.684Z,6.45
2019-05-28T16:05:19.550Z,3.52
2019-05-28T16:08:23.010Z,7.62
2019-05-28T16:11:25.566Z,6.83
2019-05-28T16:14:28.368Z,4.28
2019-05-28T16:17:34.164Z,8.68
2019-05-28T16:20:48.556Z,5.20
2019-05-28T16:23:53.397Z,8.25
2019-05-28T16:26:55.685Z,5.20
2019-05-28T16:29:57.982Z,8.30
2019-05-28T16:32:59.898Z,4.87
2019-05-28T16:36:01.392Z,5.45
2019-05-28T16:39:06.927Z,4.42
2019-05-28T16:42:08.547Z,4.35
2019-05-28T16:45:11.435Z,10.48
2019-05-28T16:48:12.880Z,8.48
2019-05-28T16:51:14.462Z,2.35
2019-05-28T16:54:19.374Z,8.43
2019-05-28T16:57:19.591Z,10.78
2019-05-28T17:00:21.159Z,10.38
2019-05-28T17:03:22.594Z,10.55
2019-05-28T17:06:24.155Z,5.92
2019-05-28T17:09:25.687Z,10.98
2019-05-28T17:12:27.158Z,8.70
2019-05-28T17:15:28.383Z,9.13
2019-05-28T17:18:32.726Z,6.72
2019-05-28T17:21:34.545Z,8.18
2019-05-28T17:24:35.897Z,7.40
2019-05-28T17:27:38.928Z,13.53
2019-05-28T17:30:41.141Z,10.93
2019-05-28T17:33:44.319Z,6.80
2019-05-28T17:36:47.417Z,5.92
2019-05-28T17:39:50.888Z,8.73
2019-05-28T17:42:52.760Z,8.40
2019-05-28T17:45:55.991Z,7.42
2019-05-28T17:48:57.366Z,8.88
2019-05-28T17:51:59.874Z,8.75
2019-05-28T17:55:24.721Z,6.85
2019-05-28T17:58:30.858Z,10.35
2019-05-28T18:01:31.428Z,14.65
2019-05-28T18:04:34.626Z,12.30
2019-05-28T18:07:37.334Z,16.15
2019-05-28T18:10:39.386Z,11.85
2019-05-28T18:13:43.811Z,10.32
2019-05-28T18:16:47.212Z,8.30
2019-05-28T18:19:50.995Z,8.75
2019-05-28T18:22:54.815Z,13.70
2019-05-28T18:25:56.206Z,6.75
2019-05-28T18:28:57.715Z,10.93
2019-05-28T18:31:59.923Z,8.20
2019-05-28T18:35:01.892Z,7.83
2019-05-28T18:38:03.939Z,8.73
2019-05-28T18:41:20.708Z,6.33
2019-05-28T18:44:12.108Z,8.93
2019-05-28T18:47:14.431Z,9.15
2019-05-28T18:50:16.989Z,8.20
2019-05-28T18:53:18.369Z,7.67
2019-05-28T18:56:21.064Z,10.63
2019-05-28T18:59:22.562Z,10.38
2019-05-28T19:02:25.272Z,6.20
2019-05-28T19:05:26.638Z,9.60
2019-05-28T19:08:28.325Z,9.80
2019-05-28T19:11:37.737Z,11.68
2019-05-28T19:14:33.772Z,12.10
2019-05-28T19:17:35.312Z,7.80
2019-05-28T19:20:37.663Z,8.93
2019-05-28T19:23:38.917Z,9.78
2019-05-28T19:26:40.379Z,11.85
2019-05-28T19:29:42.020Z,26.33
2019-05-28T19:32:43.592Z,29.02
2019-05-28T19:35:46.185Z,12.05
2019-05-28T19:38:49.021Z,16.82
2019-05-28T19:41:54.839Z,11.80
2019-05-28T19:44:57.632Z,16.55
2019-05-28T19:48:01.435Z,19.07
2019-05-28T19:51:02.975Z,13.05
2019-05-28T19:54:05.032Z,18.35
2019-05-28T19:57:07.417Z,13.50
2019-05-28T20:00:11.294Z,13.95
2019-05-28T20:03:13.324Z,13.28
2019-05-28T20:06:14.890Z,11.08
2019-05-28T20:09:18.589Z,11.25
2019-05-28T20:12:19.991Z,16.52
2019-05-28T20:15:24.512Z,17.07
2019-05-28T20:18:27.309Z,17.90
2019-05-28T20:21:31.496Z,22.25
2019-05-28T20:24:32.838Z,14.30
2019-05-28T20:27:34.437Z,19.82
2019-05-28T20:30:35.814Z,29.00
2019-05-28T20:33:37.451Z,23.67
2019-05-28T20:36:39.033Z,20.37
2019-05-28T20:39:41.570Z,16.93
2019-05-28T20:42:43.207Z,21.77
2019-05-28T20:45:47.712Z,15.78
2019-05-28T20:48:50.455Z,16.65
2019-05-28T20:51:53.180Z,14.13
2019-05-28T20:54:55.155Z,16.95
2019-05-28T20:57:57.916Z,17.98
2019-05-28T21:01:02.002Z,18.42
2019-05-28T21:04:04.693Z,17.82
2019-05-28T21:07:06.176Z,15.28
2019-05-28T21:10:09.210Z,21.27
2019-05-28T21:13:11.829Z,26.07
2019-05-28T21:16:14.955Z,23.42
2019-05-28T21:19:16.563Z,17.70
2019-05-28T21:22:26.899Z,22.98
2019-05-28T21:25:23.137Z,16.40
2019-05-28T21:28:26.066Z,24.12
2019-05-28T21:31:28.805Z,20.20
2019-05-28T21:34:30.732Z,20.70
2019-05-28T21:37:33.186Z,23.90
2019-05-28T21:40:36.480Z,21.25
2019-05-28T21:43:39.172Z,19.70
2019-05-28T21:46:40.372Z,20.95
2019-05-28T21:49:42.591Z,17.50
2019-05-28T21:52:44.126Z,22.32
2019-05-28T21:55:45.481Z,19.85
2019-05-28T21:58:48.393Z,20.02
2019-05-28T22:01:49.830Z,22.10
2019-05-28T22:04:53.814Z,17.15
2019-05-28T22:07:55.529Z,19.80
2019-05-28T22:10:57.684Z,22.48
2019-05-28T22:14:00.132Z,19.37
2019-05-28T22:17:03.541Z,20.70
2019-05-28T22:20:06.353Z,19.67
2019-05-28T22:23:08.807Z,25.85
2019-05-28T22:26:10.828Z,21.57
2019-05-28T22:29:12.898Z,21.87
2019-05-28T22:32:14.176Z,24.07
2019-05-28T22:35:17.733Z,20.37
2019-05-28T22:38:18.981Z,21.40
2019-05-28T22:41:20.348Z,21.87
2019-05-28T22:44:21.611Z,16.85
2019-05-28T22:47:23.458Z,15.80
2019-05-28T22:50:25.294Z,17.85
2019-05-28T22:53:26.788Z,18.37
2019-05-28T22:56:28.140Z,17.23
2019-05-28T22:59:29.418Z,19.62
2019-05-28T23:02:30.674Z,18.15
2019-05-28T23:05:33.197Z,17.60
2019-05-28T23:08:35.066Z,18.70
2019-05-28T23:11:36.342Z,19.77
2019-05-28T23:14:37.596Z,19.17
2019-05-28T23:17:39.777Z,20.75
2019-05-28T23:20:41.751Z,19.52
2019-05-28T23:23:43.169Z,21.65
2019-05-28T23:26:48.298Z,20.23
2019-05-28T23:29:50.388Z,22.20
2019-05-28T23:32:51.644Z,19.50
2019-05-28T23:35:53.170Z,45.67
2019-05-28T23:38:54.431Z,18.57
2019-05-28T23:41:55.864Z,17.48
2019-05-28T23:44:57.235Z,25.40
2019-05-28T23:47:58.981Z,28.30
2019-05-28T23:51:00.364Z,22.85
2019-05-28T23:54:01.904Z,21.35
2019-05-28T23:57:03.414Z,20.62
